sensor_id;sensor_type;location;lat;lon;timestamp;temperature;humidity
65239;SHT30;51827;51.186;6.926;2023-02-22T00:00:03;19.16;53.63
65239;SHT30;51827;51.186;6.926;2023-02-22T00:01:03;19.16;53.60
65239;SHT30;51827;51.186;6.926;2023-02-22T00:02:03;19.15;53.63
65239;SHT30;51827;51.186;6.926;2023-02-22T00:03:04;19.18;53.58
65239;SHT30;51827;51.186;6.926;2023-02-22T00:04:05;19.13;53.56
65239;SHT30;51827;51.186;6.926;2023-02-22T00:05:06;19.13;53.59
65239;SHT30;51827;51.186;6.926;2023-02-22T00:06:06;19.16;53.60
65239;SHT30;51827;51.186;6.926;2023-02-22T00:07:07;19.15;53.58
65239;SHT30;51827;51.186;6.926;2023-02-22T00:08:07;19.18;53.58
65239;SHT30;51827;51.186;6.926;2023-02-22T00:09:07;19.15;53.57
65239;SHT30;51827;51.186;6.926;2023-02-22T00:10:07;19.16;53.50
65239;SHT30;51827;51.186;6.926;2023-02-22T00:11:08;19.15;53.53
65239;SHT30;51827;51.186;6.926;2023-02-22T00:12:09;19.20;53.52
65239;SHT30;51827;51.186;6.926;2023-02-22T00:13:11;19.16;53.52
65239;SHT30;51827;51.186;6.926;2023-02-22T00:14:12;19.15;53.50
65239;SHT30;51827;51.186;6.926;2023-02-22T00:15:12;19.15;53.47
65239;SHT30;51827;51.186;6.926;2023-02-22T00:16:18;19.16;53.47
65239;SHT30;51827;51.186;6.926;2023-02-22T00:17:19;19.18;53.49
65239;SHT30;51827;51.186;6.926;2023-02-22T00:18:20;19.18;53.46
65239;SHT30;51827;51.186;6.926;2023-02-22T00:19:20;19.18;53.45
65239;SHT30;51827;51.186;6.926;2023-02-22T00:20:20;19.15;53.46
65239;SHT30;51827;51.186;6.926;2023-02-22T00:21:21;19.16;53.48
65239;SHT30;51827;51.186;6.926;2023-02-22T00:22:21;19.16;53.44
65239;SHT30;51827;51.186;6.926;2023-02-22T00:23:21;19.15;53.47
65239;SHT30;51827;51.186;6.926;2023-02-22T00:24:23;19.16;53.45
65239;SHT30;51827;51.186;6.926;2023-02-22T00:25:23;19.13;53.50
65239;SHT30;51827;51.186;6.926;2023-02-22T00:26:24;19.15;53.49
65239;SHT30;51827;51.186;6.926;2023-02-22T00:27:24;19.13;53.53
65239;SHT30;51827;51.186;6.926;2023-02-22T00:28:25;19.13;53.52
65239;SHT30;51827;51.186;6.926;2023-02-22T00:29:25;19.13;53.48
65239;SHT30;51827;51.186;6.926;2023-02-22T00:30:28;19.15;53.49
65239;SHT30;51827;51.186;6.926;2023-02-22T00:31:28;19.13;53.51
65239;SHT30;51827;51.186;6.926;2023-02-22T00:32:29;19.13;53.50
65239;SHT30;51827;51.186;6.926;2023-02-22T00:33:29;19.16;53.46
65239;SHT30;51827;51.186;6.926;2023-02-22T00:34:30;19.13;53.50
65239;SHT30;51827;51.186;6.926;2023-02-22T00:35:30;19.15;53.46
65239;SHT30;51827;51.186;6.926;2023-02-22T00:36:30;19.13;53.45
65239;SHT30;51827;51.186;6.926;2023-02-22T00:37:30;19.15;53.44
65239;SHT30;51827;51.186;6.926;2023-02-22T00:38:31;19.13;53.48
65239;SHT30;51827;51.186;6.926;2023-02-22T00:39:31;19.12;53.48
65239;SHT30;51827;51.186;6.926;2023-02-22T00:40:33;19.16;53.44
65239;SHT30;51827;51.186;6.926;2023-02-22T00:41:34;19.13;53.41
65239;SHT30;51827;51.186;6.926;2023-02-22T00:42:34;19.16;53.40
65239;SHT30;51827;51.186;6.926;2023-02-22T00:43:34;19.16;53.43
65239;SHT30;51827;51.186;6.926;2023-02-22T00:44:35;19.15;53.39
65239;SHT30;51827;51.186;6.926;2023-02-22T00:45:36;19.13;53.40
65239;SHT30;51827;51.186;6.926;2023-02-22T00:46:36;19.15;53.40
65239;SHT30;51827;51.186;6.926;2023-02-22T00:47:36;19.15;53.35
65239;SHT30;51827;51.186;6.926;2023-02-22T00:48:36;19.15;53.35
65239;SHT30;51827;51.186;6.926;2023-02-22T00:49:37;19.16;53.40
65239;SHT30;51827;51.186;6.926;2023-02-22T00:50:37;19.13;53.46
65239;SHT30;51827;51.186;6.926;2023-02-22T00:51:38;19.13;53.42
65239;SHT30;51827;51.186;6.926;2023-02-22T00:52:38;19.10;53.42
65239;SHT30;51827;51.186;6.926;2023-02-22T00:53:38;19.13;53.39
65239;SHT30;51827;51.186;6.926;2023-02-22T00:54:38;19.12;53.36
65239;SHT30;51827;51.186;6.926;2023-02-22T00:55:39;19.13;53.41
65239;SHT30;51827;51.186;6.926;2023-02-22T00:56:39;19.13;53.32
65239;SHT30;51827;51.186;6.926;2023-02-22T00:57:39;19.13;53.33
65239;SHT30;51827;51.186;6.926;2023-02-22T00:58:39;19.13;53.34
65239;SHT30;51827;51.186;6.926;2023-02-22T00:59:39;19.12;53.32
65239;SHT30;51827;51.186;6.926;2023-02-22T01:00:41;19.13;53.34
65239;SHT30;51827;51.186;6.926;2023-02-22T01:01:41;19.13;53.33
65239;SHT30;51827;51.186;6.926;2023-02-22T01:02:42;19.13;53.29
65239;SHT30;51827;51.186;6.926;2023-02-22T01:03:42;19.13;53.31
65239;SHT30;51827;51.186;6.926;2023-02-22T01:04:43;19.15;53.29
65239;SHT30;51827;51.186;6.926;2023-02-22T01:05:43;19.15;53.28
65239;SHT30;51827;51.186;6.926;2023-02-22T01:06:44;19.15;53.30
65239;SHT30;51827;51.186;6.926;2023-02-22T01:07:44;19.10;53.27
65239;SHT30;51827;51.186;6.926;2023-02-22T01:08:46;19.12;53.32
65239;SHT30;51827;51.186;6.926;2023-02-22T01:09:46;19.13;53.32
65239;SHT30;51827;51.186;6.926;2023-02-22T01:10:46;19.13;53.31
65239;SHT30;51827;51.186;6.926;2023-02-22T01:11:51;19.13;53.29
65239;SHT30;51827;51.186;6.926;2023-02-22T01:12:52;19.12;53.29
65239;SHT30;51827;51.186;6.926;2023-02-22T01:13:53;19.13;53.29
65239;SHT30;51827;51.186;6.926;2023-02-22T01:14:53;19.15;53.27
65239;SHT30;51827;51.186;6.926;2023-02-22T01:15:53;19.12;53.25
65239;SHT30;51827;51.186;6.926;2023-02-22T01:16:54;19.13;53.26
65239;SHT30;51827;51.186;6.926;2023-02-22T01:17:56;19.12;53.29
65239;SHT30;51827;51.186;6.926;2023-02-22T01:18:56;19.13;53.21
65239;SHT30;51827;51.186;6.926;2023-02-22T01:19:57;19.13;53.23
65239;SHT30;51827;51.186;6.926;2023-02-22T01:20:57;19.13;53.25
65239;SHT30;51827;51.186;6.926;2023-02-22T01:21:57;19.13;53.26
65239;SHT30;51827;51.186;6.926;2023-02-22T01:22:59;19.13;53.19
65239;SHT30;51827;51.186;6.926;2023-02-22T01:24:00;19.12;53.25
65239;SHT30;51827;51.186;6.926;2023-02-22T01:25:00;19.13;53.19
65239;SHT30;51827;51.186;6.926;2023-02-22T01:26:01;19.12;53.18
65239;SHT30;51827;51.186;6.926;2023-02-22T01:27:01;19.10;53.23
65239;SHT30;51827;51.186;6.926;2023-02-22T01:28:03;19.13;53.19
65239;SHT30;51827;51.186;6.926;2023-02-22T01:29:03;19.12;53.14
65239;SHT30;51827;51.186;6.926;2023-02-22T01:30:05;19.10;53.19
65239;SHT30;51827;51.186;6.926;2023-02-22T01:31:06;19.12;53.19
65239;SHT30;51827;51.186;6.926;2023-02-22T01:32:06;19.13;53.16
65239;SHT30;51827;51.186;6.926;2023-02-22T01:33:07;19.12;53.17
65239;SHT30;51827;51.186;6.926;2023-02-22T01:34:07;19.10;53.19
65239;SHT30;51827;51.186;6.926;2023-02-22T01:35:10;19.13;53.18
65239;SHT30;51827;51.186;6.926;2023-02-22T01:36:12;19.09;53.21
65239;SHT30;51827;51.186;6.926;2023-02-22T01:37:12;19.13;53.18
65239;SHT30;51827;51.186;6.926;2023-02-22T01:38:12;19.12;53.22
65239;SHT30;51827;51.186;6.926;2023-02-22T01:39:13;19.10;53.14
65239;SHT30;51827;51.186;6.926;2023-02-22T01:40:21;19.10;53.14
65239;SHT30;51827;51.186;6.926;2023-02-22T01:41:21;19.12;53.14
65239;SHT30;51827;51.186;6.926;2023-02-22T01:42:21;19.12;53.17
65239;SHT30;51827;51.186;6.926;2023-02-22T01:43:28;19.10;53.17
65239;SHT30;51827;51.186;6.926;2023-02-22T01:46:29;19.13;53.19
65239;SHT30;51827;51.186;6.926;2023-02-22T01:47:29;19.13;53.11
65239;SHT30;51827;51.186;6.926;2023-02-22T01:48:45;19.13;53.11
65239;SHT30;51827;51.186;6.926;2023-02-22T01:49:49;19.12;53.12
65239;SHT30;51827;51.186;6.926;2023-02-22T01:52:02;19.08;53.11
65239;SHT30;51827;51.186;6.926;2023-02-22T01:53:03;19.10;53.11
65239;SHT30;51827;51.186;6.926;2023-02-22T01:54:08;19.12;53.09
65239;SHT30;51827;51.186;6.926;2023-02-22T01:55:09;19.10;53.12
65239;SHT30;51827;51.186;6.926;2023-02-22T01:56:10;19.12;53.11
65239;SHT30;51827;51.186;6.926;2023-02-22T01:57:24;19.10;53.07
65239;SHT30;51827;51.186;6.926;2023-02-22T01:58:27;19.09;53.10
65239;SHT30;51827;51.186;6.926;2023-02-22T01:59:30;19.09;53.07
65239;SHT30;51827;51.186;6.926;2023-02-22T02:00:32;19.12;53.12
65239;SHT30;51827;51.186;6.926;2023-02-22T02:01:34;19.09;53.12
65239;SHT30;51827;51.186;6.926;2023-02-22T02:02:43;19.13;53.08
65239;SHT30;51827;51.186;6.926;2023-02-22T02:03:44;19.10;53.09
65239;SHT30;51827;51.186;6.926;2023-02-22T02:04:45;19.09;53.08
65239;SHT30;51827;51.186;6.926;2023-02-22T02:05:45;19.13;53.08
65239;SHT30;51827;51.186;6.926;2023-02-22T02:06:46;19.10;53.08
65239;SHT30;51827;51.186;6.926;2023-02-22T02:07:47;19.06;53.05
65239;SHT30;51827;51.186;6.926;2023-02-22T02:10:20;19.08;53.13
65239;SHT30;51827;51.186;6.926;2023-02-22T02:11:23;19.10;53.11
65239;SHT30;51827;51.186;6.926;2023-02-22T02:12:24;19.09;53.08
65239;SHT30;51827;51.186;6.926;2023-02-22T02:13:27;19.08;53.04
65239;SHT30;51827;51.186;6.926;2023-02-22T02:14:28;19.08;53.12
65239;SHT30;51827;51.186;6.926;2023-02-22T02:15:30;19.08;53.11
65239;SHT30;51827;51.186;6.926;2023-02-22T02:16:48;19.10;53.05
65239;SHT30;51827;51.186;6.926;2023-02-22T02:17:50;19.13;53.08
65239;SHT30;51827;51.186;6.926;2023-02-22T02:18:51;19.10;53.06
65239;SHT30;51827;51.186;6.926;2023-02-22T02:35:00;19.06;53.03
65239;SHT30;51827;51.186;6.926;2023-02-22T02:36:05;19.06;53.10
65239;SHT30;51827;51.186;6.926;2023-02-22T02:37:24;19.08;53.04
65239;SHT30;51827;51.186;6.926;2023-02-22T02:38:34;19.05;53.01
65239;SHT30;51827;51.186;6.926;2023-02-22T02:39:40;19.08;53.01
65239;SHT30;51827;51.186;6.926;2023-02-22T02:40:48;19.03;53.03
65239;SHT30;51827;51.186;6.926;2023-02-22T02:41:50;19.05;53.03
65239;SHT30;51827;51.186;6.926;2023-02-22T02:43:00;19.03;53.06
65239;SHT30;51827;51.186;6.926;2023-02-22T02:45:08;19.06;52.97
65239;SHT30;51827;51.186;6.926;2023-02-22T02:46:31;19.06;53.02
65239;SHT30;51827;51.186;6.926;2023-02-22T02:47:36;19.09;53.03
65239;SHT30;51827;51.186;6.926;2023-02-22T02:48:44;19.05;53.05
65239;SHT30;51827;51.186;6.926;2023-02-22T02:49:54;19.03;53.00
65239;SHT30;51827;51.186;6.926;2023-02-22T02:50:57;19.05;53.07
65239;SHT30;51827;51.186;6.926;2023-02-22T02:51:59;19.06;52.97
65239;SHT30;51827;51.186;6.926;2023-02-22T02:53:03;19.06;52.98
65239;SHT30;51827;51.186;6.926;2023-02-22T02:54:06;19.05;52.96
65239;SHT30;51827;51.186;6.926;2023-02-22T02:55:08;19.06;52.97
65239;SHT30;51827;51.186;6.926;2023-02-22T02:56:09;19.05;52.99
65239;SHT30;51827;51.186;6.926;2023-02-22T02:57:09;19.05;52.92
65239;SHT30;51827;51.186;6.926;2023-02-22T02:58:16;19.02;52.97
65239;SHT30;51827;51.186;6.926;2023-02-22T02:59:43;19.06;53.00
65239;SHT30;51827;51.186;6.926;2023-02-22T03:00:44;19.05;52.88
65239;SHT30;51827;51.186;6.926;2023-02-22T03:06:22;19.08;52.89
65239;SHT30;51827;51.186;6.926;2023-02-22T03:08:44;19.06;52.88
65239;SHT30;51827;51.186;6.926;2023-02-22T03:10:07;19.06;52.87
65239;SHT30;51827;51.186;6.926;2023-02-22T03:11:25;19.06;52.84
65239;SHT30;51827;51.186;6.926;2023-02-22T03:16:49;19.03;52.88
65239;SHT30;51827;51.186;6.926;2023-02-22T03:18:07;19.05;52.85
65239;SHT30;51827;51.186;6.926;2023-02-22T03:20:26;19.06;52.81
65239;SHT30;51827;51.186;6.926;2023-02-22T03:21:31;19.05;52.79
65239;SHT30;51827;51.186;6.926;2023-02-22T03:22:38;19.05;52.81
65239;SHT30;51827;51.186;6.926;2023-02-22T03:23:46;19.05;52.81
65239;SHT30;51827;51.186;6.926;2023-02-22T03:26:10;19.06;52.81
65239;SHT30;51827;51.186;6.926;2023-02-22T03:28:19;19.03;52.79
65239;SHT30;51827;51.186;6.926;2023-02-22T03:29:22;19.02;52.84
65239;SHT30;51827;51.186;6.926;2023-02-22T03:31:00;19.03;52.78
65239;SHT30;51827;51.186;6.926;2023-02-22T03:32:04;19.06;52.78
65239;SHT30;51827;51.186;6.926;2023-02-22T03:33:14;19.05;52.77
65239;SHT30;51827;51.186;6.926;2023-02-22T03:34:25;19.03;52.79
65239;SHT30;51827;51.186;6.926;2023-02-22T03:35:32;19.06;52.76
65239;SHT30;51827;51.186;6.926;2023-02-22T03:36:38;19.05;52.74
65239;SHT30;51827;51.186;6.926;2023-02-22T03:37:44;19.05;52.75
65239;SHT30;51827;51.186;6.926;2023-02-22T03:38:46;19.05;52.75
65239;SHT30;51827;51.186;6.926;2023-02-22T03:39:50;19.03;52.78
65239;SHT30;51827;51.186;6.926;2023-02-22T03:40:53;19.03;52.69
65239;SHT30;51827;51.186;6.926;2023-02-22T03:42:00;19.03;52.69
65239;SHT30;51827;51.186;6.926;2023-02-22T03:43:08;19.03;52.77
65239;SHT30;51827;51.186;6.926;2023-02-22T03:44:12;19.02;52.75
65239;SHT30;51827;51.186;6.926;2023-02-22T03:45:16;19.05;52.77
65239;SHT30;51827;51.186;6.926;2023-02-22T03:46:17;19.02;52.71
65239;SHT30;51827;51.186;6.926;2023-02-22T03:47:22;19.05;52.71
65239;SHT30;51827;51.186;6.926;2023-02-22T03:50:33;19.03;52.70
65239;SHT30;51827;51.186;6.926;2023-02-22T03:51:34;19.00;52.74
65239;SHT30;51827;51.186;6.926;2023-02-22T03:52:35;18.98;52.75
65239;SHT30;51827;51.186;6.926;2023-02-22T03:53:36;19.03;52.73
65239;SHT30;51827;51.186;6.926;2023-02-22T03:54:36;19.02;52.74
65239;SHT30;51827;51.186;6.926;2023-02-22T03:55:37;19.03;52.68
65239;SHT30;51827;51.186;6.926;2023-02-22T03:56:43;19.03;52.69
65239;SHT30;51827;51.186;6.926;2023-02-22T03:57:47;19.02;52.73
65239;SHT30;51827;51.186;6.926;2023-02-22T03:58:49;19.03;52.71
65239;SHT30;51827;51.186;6.926;2023-02-22T03:59:50;18.99;52.72
65239;SHT30;51827;51.186;6.926;2023-02-22T04:00:50;18.98;52.72
65239;SHT30;51827;51.186;6.926;2023-02-22T04:01:51;19.02;52.71
65239;SHT30;51827;51.186;6.926;2023-02-22T04:02:52;19.02;52.64
65239;SHT30;51827;51.186;6.926;2023-02-22T04:03:53;19.05;52.64
65239;SHT30;51827;51.186;6.926;2023-02-22T04:04:53;19.03;52.61
65239;SHT30;51827;51.186;6.926;2023-02-22T04:05:53;19.03;52.60
65239;SHT30;51827;51.186;6.926;2023-02-22T04:06:54;19.05;52.64
65239;SHT30;51827;51.186;6.926;2023-02-22T04:07:56;19.02;52.68
65239;SHT30;51827;51.186;6.926;2023-02-22T04:08:56;19.02;52.68
65239;SHT30;51827;51.186;6.926;2023-02-22T04:09:56;19.03;52.63
65239;SHT30;51827;51.186;6.926;2023-02-22T04:10:57;19.02;52.65
65239;SHT30;51827;51.186;6.926;2023-02-22T04:11:57;19.05;52.59
65239;SHT30;51827;51.186;6.926;2023-02-22T04:12:57;19.02;52.60
65239;SHT30;51827;51.186;6.926;2023-02-22T04:13:58;19.05;52.61
65239;SHT30;51827;51.186;6.926;2023-02-22T04:14:58;19.03;52.67
65239;SHT30;51827;51.186;6.926;2023-02-22T04:15:58;19.02;52.65
65239;SHT30;51827;51.186;6.926;2023-02-22T04:16:59;19.03;52.60
65239;SHT30;51827;51.186;6.926;2023-02-22T04:17:59;19.02;52.60
65239;SHT30;51827;51.186;6.926;2023-02-22T04:18:59;19.05;52.58
65239;SHT30;51827;51.186;6.926;2023-02-22T04:19:59;19.05;52.59
65239;SHT30;51827;51.186;6.926;2023-02-22T04:21:00;19.03;52.54
65239;SHT30;51827;51.186;6.926;2023-02-22T04:22:00;19.02;52.55
65239;SHT30;51827;51.186;6.926;2023-02-22T04:23:00;19.03;52.60
65239;SHT30;51827;51.186;6.926;2023-02-22T04:24:01;19.05;52.53
65239;SHT30;51827;51.186;6.926;2023-02-22T04:25:01;19.03;52.57
65239;SHT30;51827;51.186;6.926;2023-02-22T04:26:01;19.03;52.57
65239;SHT30;51827;51.186;6.926;2023-02-22T04:27:01;19.00;52.61
65239;SHT30;51827;51.186;6.926;2023-02-22T04:28:02;19.00;52.55
65239;SHT30;51827;51.186;6.926;2023-02-22T04:29:03;19.03;52.56
65239;SHT30;51827;51.186;6.926;2023-02-22T04:30:03;19.05;52.51
65239;SHT30;51827;51.186;6.926;2023-02-22T04:31:04;19.03;52.51
65239;SHT30;51827;51.186;6.926;2023-02-22T04:32:05;19.02;52.55
65239;SHT30;51827;51.186;6.926;2023-02-22T04:33:05;19.02;52.59
65239;SHT30;51827;51.186;6.926;2023-02-22T04:34:06;19.02;52.54
65239;SHT30;51827;51.186;6.926;2023-02-22T04:35:06;19.05;52.51
65239;SHT30;51827;51.186;6.926;2023-02-22T04:36:07;19.03;52.53
65239;SHT30;51827;51.186;6.926;2023-02-22T04:37:08;19.00;52.54
65239;SHT30;51827;51.186;6.926;2023-02-22T04:38:08;19.00;52.57
65239;SHT30;51827;51.186;6.926;2023-02-22T04:39:09;19.02;52.49
65239;SHT30;51827;51.186;6.926;2023-02-22T04:40:09;19.05;52.49
65239;SHT30;51827;51.186;6.926;2023-02-22T04:41:10;19.03;52.52
65239;SHT30;51827;51.186;6.926;2023-02-22T04:42:10;19.00;52.47
65239;SHT30;51827;51.186;6.926;2023-02-22T04:43:10;19.02;52.47
65239;SHT30;51827;51.186;6.926;2023-02-22T04:44:10;19.05;52.50
65239;SHT30;51827;51.186;6.926;2023-02-22T04:45:11;19.05;52.52
65239;SHT30;51827;51.186;6.926;2023-02-22T04:46:12;19.05;52.48
65239;SHT30;51827;51.186;6.926;2023-02-22T04:47:12;19.03;52.48
65239;SHT30;51827;51.186;6.926;2023-02-22T04:48:13;19.03;52.51
65239;SHT30;51827;51.186;6.926;2023-02-22T04:49:13;19.03;52.45
65239;SHT30;51827;51.186;6.926;2023-02-22T04:50:14;19.06;52.41
65239;SHT30;51827;51.186;6.926;2023-02-22T04:51:15;19.05;52.46
65239;SHT30;51827;51.186;6.926;2023-02-22T04:52:15;19.05;52.49
65239;SHT30;51827;51.186;6.926;2023-02-22T04:53:16;19.03;52.49
65239;SHT30;51827;51.186;6.926;2023-02-22T04:54:16;19.03;52.45
65239;SHT30;51827;51.186;6.926;2023-02-22T04:55:16;19.05;52.50
65239;SHT30;51827;51.186;6.926;2023-02-22T04:56:17;19.02;52.48
65239;SHT30;51827;51.186;6.926;2023-02-22T04:57:17;19.03;52.51
65239;SHT30;51827;51.186;6.926;2023-02-22T04:58:18;19.08;52.53
65239;SHT30;51827;51.186;6.926;2023-02-22T04:59:18;19.05;52.48
65239;SHT30;51827;51.186;6.926;2023-02-22T05:00:19;19.06;52.54
65239;SHT30;51827;51.186;6.926;2023-02-22T05:01:30;19.09;52.54
65239;SHT30;51827;51.186;6.926;2023-02-22T05:02:31;19.08;52.55
65239;SHT30;51827;51.186;6.926;2023-02-22T05:03:31;19.05;52.56
65239;SHT30;51827;51.186;6.926;2023-02-22T05:04:31;19.03;52.52
65239;SHT30;51827;51.186;6.926;2023-02-22T05:05:31;19.06;52.63
65239;SHT30;51827;51.186;6.926;2023-02-22T05:06:32;19.03;52.66
65239;SHT30;51827;51.186;6.926;2023-02-22T05:07:32;19.06;52.65
65239;SHT30;51827;51.186;6.926;2023-02-22T05:08:32;19.03;52.65
65239;SHT30;51827;51.186;6.926;2023-02-22T05:09:33;19.06;52.66
65239;SHT30;51827;51.186;6.926;2023-02-22T05:10:33;19.06;52.66
65239;SHT30;51827;51.186;6.926;2023-02-22T05:11:33;19.03;52.69
65239;SHT30;51827;51.186;6.926;2023-02-22T05:12:34;19.06;52.69
65239;SHT30;51827;51.186;6.926;2023-02-22T05:13:34;19.09;52.66
65239;SHT30;51827;51.186;6.926;2023-02-22T05:14:34;19.05;52.70
65239;SHT30;51827;51.186;6.926;2023-02-22T05:15:35;19.05;52.66
65239;SHT30;51827;51.186;6.926;2023-02-22T05:16:35;19.08;52.65
65239;SHT30;51827;51.186;6.926;2023-02-22T05:17:36;19.06;52.67
65239;SHT30;51827;51.186;6.926;2023-02-22T05:18:36;19.09;52.64
65239;SHT30;51827;51.186;6.926;2023-02-22T05:19:36;19.08;52.66
65239;SHT30;51827;51.186;6.926;2023-02-22T05:20:36;19.06;52.67
65239;SHT30;51827;51.186;6.926;2023-02-22T05:21:37;19.06;52.68
65239;SHT30;51827;51.186;6.926;2023-02-22T05:22:37;19.08;52.69
65239;SHT30;51827;51.186;6.926;2023-02-22T05:23:38;19.06;52.69
65239;SHT30;51827;51.186;6.926;2023-02-22T05:24:38;19.08;52.71
65239;SHT30;51827;51.186;6.926;2023-02-22T05:25:38;19.06;52.71
65239;SHT30;51827;51.186;6.926;2023-02-22T05:26:38;19.06;52.69
65239;SHT30;51827;51.186;6.926;2023-02-22T05:27:39;19.08;52.70
65239;SHT30;51827;51.186;6.926;2023-02-22T05:28:40;19.06;52.75
65239;SHT30;51827;51.186;6.926;2023-02-22T05:29:40;19.08;52.76
65239;SHT30;51827;51.186;6.926;2023-02-22T05:30:40;19.09;52.84
65239;SHT30;51827;51.186;6.926;2023-02-22T05:31:40;19.10;52.89
65239;SHT30;51827;51.186;6.926;2023-02-22T05:32:41;19.10;52.92
65239;SHT30;51827;51.186;6.926;2023-02-22T05:33:41;19.08;52.97
65239;SHT30;51827;51.186;6.926;2023-02-22T05:34:41;19.09;53.00
65239;SHT30;51827;51.186;6.926;2023-02-22T05:35:42;19.12;53.03
65239;SHT30;51827;51.186;6.926;2023-02-22T05:36:42;19.08;53.07
65239;SHT30;51827;51.186;6.926;2023-02-22T05:37:43;19.10;53.04
65239;SHT30;51827;51.186;6.926;2023-02-22T05:38:43;19.10;53.00
65239;SHT30;51827;51.186;6.926;2023-02-22T05:39:43;19.10;52.97
65239;SHT30;51827;51.186;6.926;2023-02-22T05:40:43;19.08;53.02
65239;SHT30;51827;51.186;6.926;2023-02-22T05:41:44;19.09;53.04
65239;SHT30;51827;51.186;6.926;2023-02-22T05:42:44;19.08;53.00
65239;SHT30;51827;51.186;6.926;2023-02-22T05:43:44;19.09;53.02
65239;SHT30;51827;51.186;6.926;2023-02-22T05:44:45;19.08;53.00
65239;SHT30;51827;51.186;6.926;2023-02-22T05:45:45;19.08;52.97
65239;SHT30;51827;51.186;6.926;2023-02-22T05:46:45;19.09;52.98
65239;SHT30;51827;51.186;6.926;2023-02-22T05:47:46;19.06;53.01
65239;SHT30;51827;51.186;6.926;2023-02-22T05:48:46;19.05;52.97
65239;SHT30;51827;51.186;6.926;2023-02-22T05:49:46;19.08;52.96
65239;SHT30;51827;51.186;6.926;2023-02-22T05:50:46;19.06;52.97
65239;SHT30;51827;51.186;6.926;2023-02-22T05:51:47;19.09;52.93
65239;SHT30;51827;51.186;6.926;2023-02-22T05:52:47;19.09;52.91
65239;SHT30;51827;51.186;6.926;2023-02-22T05:53:48;19.09;52.89
65239;SHT30;51827;51.186;6.926;2023-02-22T05:54:48;19.06;52.90
65239;SHT30;51827;51.186;6.926;2023-02-22T05:55:49;19.08;52.87
65239;SHT30;51827;51.186;6.926;2023-02-22T05:56:49;19.09;52.81
65239;SHT30;51827;51.186;6.926;2023-02-22T05:57:50;19.08;52.83
65239;SHT30;51827;51.186;6.926;2023-02-22T05:58:51;19.10;52.79
65239;SHT30;51827;51.186;6.926;2023-02-22T05:59:51;19.12;52.78
65239;SHT30;51827;51.186;6.926;2023-02-22T06:00:51;19.09;52.78
65239;SHT30;51827;51.186;6.926;2023-02-22T06:01:52;19.08;52.78
65239;SHT30;51827;51.186;6.926;2023-02-22T06:03:00;19.08;52.84
65239;SHT30;51827;51.186;6.926;2023-02-22T06:04:01;19.05;52.85
65239;SHT30;51827;51.186;6.926;2023-02-22T06:05:01;19.08;52.83
65239;SHT30;51827;51.186;6.926;2023-02-22T06:06:01;19.05;52.82
65239;SHT30;51827;51.186;6.926;2023-02-22T06:07:02;19.06;52.85
65239;SHT30;51827;51.186;6.926;2023-02-22T06:08:04;19.08;52.83
65239;SHT30;51827;51.186;6.926;2023-02-22T06:09:04;19.06;52.81
65239;SHT30;51827;51.186;6.926;2023-02-22T06:10:05;19.09;52.80
65239;SHT30;51827;51.186;6.926;2023-02-22T06:11:05;19.05;52.83
65239;SHT30;51827;51.186;6.926;2023-02-22T06:12:06;19.06;52.81
65239;SHT30;51827;51.186;6.926;2023-02-22T06:13:07;19.05;52.86
65239;SHT30;51827;51.186;6.926;2023-02-22T06:14:08;19.06;52.77
65239;SHT30;51827;51.186;6.926;2023-02-22T06:15:08;19.08;52.81
65239;SHT30;51827;51.186;6.926;2023-02-22T06:16:08;19.05;52.78
65239;SHT30;51827;51.186;6.926;2023-02-22T06:17:08;19.05;52.76
65239;SHT30;51827;51.186;6.926;2023-02-22T06:18:09;19.06;52.77
65239;SHT30;51827;51.186;6.926;2023-02-22T06:19:09;19.05;52.71
65239;SHT30;51827;51.186;6.926;2023-02-22T06:20:13;19.08;52.74
65239;SHT30;51827;51.186;6.926;2023-02-22T06:21:14;19.06;52.74
65239;SHT30;51827;51.186;6.926;2023-02-22T06:22:18;19.06;52.68
65239;SHT30;51827;51.186;6.926;2023-02-22T06:23:18;19.08;52.65
65239;SHT30;51827;51.186;6.926;2023-02-22T06:24:20;19.10;52.63
65239;SHT30;51827;51.186;6.926;2023-02-22T06:25:23;19.09;52.64
65239;SHT30;51827;51.186;6.926;2023-02-22T06:26:23;19.08;52.62
65239;SHT30;51827;51.186;6.926;2023-02-22T06:27:24;19.06;52.65
65239;SHT30;51827;51.186;6.926;2023-02-22T06:28:24;19.08;52.61
65239;SHT30;51827;51.186;6.926;2023-02-22T06:29:25;19.09;52.61
65239;SHT30;51827;51.186;6.926;2023-02-22T06:30:26;19.08;52.61
65239;SHT30;51827;51.186;6.926;2023-02-22T06:31:27;19.09;52.55
65239;SHT30;51827;51.186;6.926;2023-02-22T06:32:27;19.09;52.55
65239;SHT30;51827;51.186;6.926;2023-02-22T06:33:27;19.08;52.57
65239;SHT30;51827;51.186;6.926;2023-02-22T06:34:28;19.08;52.60
65239;SHT30;51827;51.186;6.926;2023-02-22T06:35:28;19.08;52.56
65239;SHT30;51827;51.186;6.926;2023-02-22T06:36:28;19.09;52.60
65239;SHT30;51827;51.186;6.926;2023-02-22T06:37:29;19.09;52.51
65239;SHT30;51827;51.186;6.926;2023-02-22T06:38:29;19.09;52.53
65239;SHT30;51827;51.186;6.926;2023-02-22T06:39:29;19.06;52.58
65239;SHT30;51827;51.186;6.926;2023-02-22T06:40:30;19.06;52.54
65239;SHT30;51827;51.186;6.926;2023-02-22T06:41:30;19.05;52.55
65239;SHT30;51827;51.186;6.926;2023-02-22T06:42:30;19.05;52.58
65239;SHT30;51827;51.186;6.926;2023-02-22T06:43:30;19.06;52.52
65239;SHT30;51827;51.186;6.926;2023-02-22T06:44:31;19.05;52.53
65239;SHT30;51827;51.186;6.926;2023-02-22T06:45:31;19.06;52.51
65239;SHT30;51827;51.186;6.926;2023-02-22T06:46:34;19.02;52.52
65239;SHT30;51827;51.186;6.926;2023-02-22T06:47:38;19.03;52.58
65239;SHT30;51827;51.186;6.926;2023-02-22T06:48:39;19.05;52.55
65239;SHT30;51827;51.186;6.926;2023-02-22T06:49:39;19.03;52.57
65239;SHT30;51827;51.186;6.926;2023-02-22T06:50:40;19.03;52.50
65239;SHT30;51827;51.186;6.926;2023-02-22T06:51:40;19.06;52.45
65239;SHT30;51827;51.186;6.926;2023-02-22T06:52:43;19.06;52.52
65239;SHT30;51827;51.186;6.926;2023-02-22T06:53:44;19.03;52.47
65239;SHT30;51827;51.186;6.926;2023-02-22T06:54:44;19.03;52.46
65239;SHT30;51827;51.186;6.926;2023-02-22T06:55:44;19.06;52.45
65239;SHT30;51827;51.186;6.926;2023-02-22T06:56:44;19.06;52.43
65239;SHT30;51827;51.186;6.926;2023-02-22T06:57:45;19.08;52.38
65239;SHT30;51827;51.186;6.926;2023-02-22T06:58:45;19.05;52.40
65239;SHT30;51827;51.186;6.926;2023-02-22T06:59:45;19.08;52.38
65239;SHT30;51827;51.186;6.926;2023-02-22T07:00:45;19.08;52.42
65239;SHT30;51827;51.186;6.926;2023-02-22T07:01:46;19.08;52.44
65239;SHT30;51827;51.186;6.926;2023-02-22T07:02:46;19.05;52.40
65239;SHT30;51827;51.186;6.926;2023-02-22T07:03:50;19.09;52.35
65239;SHT30;51827;51.186;6.926;2023-02-22T07:04:50;19.05;52.33
65239;SHT30;51827;51.186;6.926;2023-02-22T07:05:50;19.06;52.38
65239;SHT30;51827;51.186;6.926;2023-02-22T07:06:51;19.03;52.34